Time;durP1;ratioP1;P1;durP2;ratioP2;P2;SDS_P1;SDS_P2;PMS_P1;PMS_P2;Temp;Humidity;BMP_temperature;BMP_pressure;BME280_temperature;BME280_humidity;BME280_pressure;Samples;Min_cycle;Max_cycle;Signal;HPM_P1;HPM_P2
2021/10/25 00:01:04;;;;;;;6.57;4.20;;;28.50;45.20;;;;;;4260324;27;20525;-75
2021/10/25 00:03:08;;;;;;;7.80;4.65;;;28.50;45.20;;;;;;4258613;27;20061;-75
2021/10/25 00:05:11;;;;;;;7.15;4.55;;;28.50;45.20;;;;;;4265708;27;20070;-75
2021/10/25 00:07:14;;;;;;;6.45;4.63;;;28.50;45.10;;;;;;4253205;27;20055;-72
2021/10/25 00:09:18;;;;;;;6.32;4.50;;;28.50;45.20;;;;;;4265678;27;20055;-74
2021/10/25 00:11:21;;;;;;;5.78;4.30;;;28.50;45.20;;;;;;4260279;27;20055;-74
2021/10/25 00:13:25;;;;;;;6.85;4.57;;;28.50;45.10;;;;;;4258162;27;20118;-75
2021/10/25 00:15:28;;;;;;;6.28;4.72;;;28.50;45.40;;;;;;4265368;27;20464;-74
2021/10/25 00:17:31;;;;;;;9.23;4.80;;;28.50;45.10;;;;;;4252615;27;20498;-76
2021/10/25 00:19:35;;;;;;;6.38;4.82;;;28.40;45.10;;;;;;4265572;27;20053;-75
2021/10/25 00:21:38;;;;;;;7.63;5.22;;;28.50;45.10;;;;;;4260967;27;20055;-74
2021/10/25 00:23:41;;;;;;;7.50;4.88;;;28.50;45.10;;;;;;4258215;27;20054;-73
2021/10/25 00:25:46;;;;;;;8.13;4.70;;;28.50;45.10;;;;;;4265548;27;20055;-74
2021/10/25 00:27:49;;;;;;;6.35;4.82;;;28.40;45.00;;;;;;4260881;27;20062;-75
2021/10/25 00:29:52;;;;;;;6.80;4.85;;;28.50;45.10;;;;;;4248454;27;20054;-75
2021/10/25 00:31:55;;;;;;;6.82;4.65;;;28.40;45.00;;;;;;4233392;27;20518;-76
2021/10/25 00:33:58;;;;;;;7.93;4.78;;;28.50;45.10;;;;;;4256823;27;20100;-75
2021/10/25 00:36:01;;;;;;;9.60;5.05;;;28.50;45.10;;;;;;4248175;27;20051;-76
2021/10/25 00:38:04;;;;;;;6.55;4.63;;;28.50;45.10;;;;;;4259950;27;20491;-75
2021/10/25 00:40:08;;;;;;;7.30;4.85;;;28.50;45.10;;;;;;4248537;27;20434;-75
2021/10/25 00:42:12;;;;;;;7.97;4.75;;;28.50;45.10;;;;;;4250898;27;20533;-74
2021/10/25 00:44:15;;;;;;;7.90;4.53;;;28.50;45.10;;;;;;4257231;27;20051;-74
2021/10/25 00:46:18;;;;;;;5.68;4.47;;;28.50;45.10;;;;;;4247927;27;20058;-74
2021/10/25 00:48:22;;;;;;;5.95;4.47;;;28.40;44.90;;;;;;4259653;27;20051;-74
2021/10/25 00:50:25;;;;;;;5.00;4.50;;;28.50;45.00;;;;;;4248859;27;20407;-75
2021/10/25 00:52:29;;;;;;;6.65;5.18;;;28.40;44.90;;;;;;4252180;27;20052;-75
2021/10/25 00:54:35;;;;;;;6.10;4.40;;;28.40;45.00;;;;;;4255339;27;20038;-72
2021/10/25 00:56:42;;;;;;;7.07;4.53;;;28.40;45.00;;;;;;4265183;27;20058;-76
2021/10/25 00:58:46;;;;;;;7.35;5.13;;;28.40;45.00;;;;;;4233919;27;20055;-75
2021/10/25 01:00:49;;;;;;;6.15;4.40;;;28.40;44.90;;;;;;4264877;27;20050;-74
2021/10/25 01:02:53;;;;;;;6.38;4.45;;;28.50;45.00;;;;;;4261312;27;20483;-75
2021/10/25 01:04:56;;;;;;;5.97;4.13;;;28.40;44.90;;;;;;4255600;27;20129;-76
2021/10/25 01:06:59;;;;;;;7.43;4.47;;;28.40;44.90;;;;;;4264918;27;20197;-72
2021/10/25 01:09:03;;;;;;;5.50;4.22;;;28.40;44.90;;;;;;4263311;27;20536;-75
2021/10/25 01:11:07;;;;;;;6.18;4.38;;;28.40;44.90;;;;;;4248201;27;20112;-76
2021/10/25 01:13:10;;;;;;;5.43;4.10;;;28.40;44.90;;;;;;4250287;27;20067;-76
2021/10/25 01:15:15;;;;;;;7.18;4.65;;;28.50;45.00;;;;;;4257422;27;20519;-76
2021/10/25 01:17:18;;;;;;;5.80;4.68;;;28.40;44.90;;;;;;4247485;27;20066;-76
2021/10/25 01:19:21;;;;;;;6.70;4.70;;;28.40;44.90;;;;;;4258834;27;20058;-69
2021/10/25 01:21:26;;;;;;;5.60;4.18;;;28.40;45.00;;;;;;4248740;27;20051;-72
2021/10/25 01:23:29;;;;;;;6.15;4.45;;;28.40;44.90;;;;;;4252319;27;20050;-73
2021/10/25 01:25:33;;;;;;;7.13;4.97;;;28.50;44.90;;;;;;4254331;27;20047;-68
2021/10/25 01:27:36;;;;;;;6.20;4.40;;;28.40;44.90;;;;;;4264379;27;20055;-75
2021/10/25 01:29:39;;;;;;;6.95;4.85;;;28.50;44.90;;;;;;4253491;27;20453;-70
2021/10/25 01:31:42;;;;;;;5.82;4.75;;;28.50;44.90;;;;;;4262570;27;20111;-72
2021/10/25 01:33:46;;;;;;;5.35;3.92;;;28.40;44.80;;;;;;4262378;27;20051;-73
2021/10/25 01:35:49;;;;;;;5.63;4.55;;;28.50;44.90;;;;;;4253579;27;20058;-69
2021/10/25 01:37:54;;;;;;;5.90;4.78;;;28.50;44.90;;;;;;4264589;27;20051;-71
2021/10/25 01:39:57;;;;;;;6.38;4.63;;;28.40;44.80;;;;;;4253440;27;20448;-75
2021/10/25 01:42:00;;;;;;;5.45;4.28;;;28.40;44.80;;;;;;4262274;27;20051;-76
2021/10/25 01:44:09;;;;;;;6.43;4.40;;;28.40;44.80;;;;;;4262625;27;20090;-77
2021/10/25 01:46:12;;;;;;;6.68;4.47;;;28.40;44.80;;;;;;4254047;27;20054;-73
2021/10/25 01:48:15;;;;;;;6.97;4.72;;;28.40;44.80;;;;;;4264028;27;20057;-76
2021/10/25 01:50:18;;;;;;;5.32;4.40;;;28.40;44.80;;;;;;4253291;27;20046;-76
2021/10/25 01:52:21;;;;;;;5.82;4.65;;;28.40;44.70;;;;;;4262055;27;20054;-75
2021/10/25 01:54:26;;;;;;;7.22;4.25;;;28.40;44.70;;;;;;4262636;27;20440;-77
2021/10/25 01:56:29;;;;;;;6.20;4.40;;;28.40;44.70;;;;;;4253294;27;20051;-76
2021/10/25 01:58:32;;;;;;;6.63;4.50;;;28.40;44.80;;;;;;4245933;27;20058;-76
2021/10/25 02:00:35;;;;;;;5.82;4.38;;;28.40;44.70;;;;;;4253769;27;20051;-76
2021/10/25 02:02:39;;;;;;;6.20;4.43;;;28.50;44.80;;;;;;4261293;27;20107;-77
2021/10/25 02:04:42;;;;;;;6.40;4.65;;;28.40;44.80;;;;;;4262385;27;20088;-76
2021/10/25 02:06:45;;;;;;;5.05;4.28;;;28.40;44.80;;;;;;4252377;27;20042;-75
2021/10/25 02:08:48;;;;;;;6.20;4.80;;;28.40;44.70;;;;;;4263964;27;20057;-76
2021/10/25 02:10:52;;;;;;;6.70;4.53;;;28.40;44.70;;;;;;4235005;27;20051;-77
2021/10/25 02:12:56;;;;;;;6.72;4.68;;;28.50;44.80;;;;;;4260869;27;20066;-75
2021/10/25 02:14:59;;;;;;;5.68;4.43;;;28.40;44.70;;;;;;4262116;27;20094;-73
2021/10/25 02:17:02;;;;;;;6.88;4.40;;;28.40;44.70;;;;;;4258877;27;20051;-76
2021/10/25 02:19:05;;;;;;;6.30;4.07;;;28.50;44.80;;;;;;4246509;27;20051;-76
2021/10/25 02:21:09;;;;;;;16.35;4.82;;;28.40;44.70;;;;;;4255089;27;20460;-74
2021/10/25 02:23:13;;;;;;;5.45;4.03;;;28.40;44.70;;;;;;4249900;27;20051;-76
2021/10/25 02:25:15;;;;;;;6.18;4.40;;;28.40;44.80;;;;;;4250154;27;20444;-72
2021/10/25 02:27:20;;;;;;;6.03;4.20;;;28.40;44.70;;;;;;4251743;27;20058;-74
2021/10/25 02:29:23;;;;;;;6.32;3.95;;;28.40;44.70;;;;;;4263431;27;20043;-74
2021/10/25 02:31:27;;;;;;;5.95;4.45;;;28.40;44.70;;;;;;4236021;27;20055;-75
2021/10/25 02:33:30;;;;;;;5.95;4.28;;;28.50;44.70;;;;;;4259368;27;20494;-74
2021/10/25 02:35:33;;;;;;;5.47;4.25;;;28.40;44.70;;;;;;4261785;27;20515;-75
2021/10/25 02:37:36;;;;;;;6.45;4.38;;;28.40;44.60;;;;;;4233726;27;20047;-70
2021/10/25 02:39:39;;;;;;;6.50;4.50;;;28.40;44.70;;;;;;4263248;27;20051;-74
2021/10/25 02:41:42;;;;;;;5.78;4.15;;;28.40;44.60;;;;;;4255108;27;20047;-73
2021/10/25 02:43:47;;;;;;;5.72;4.30;;;28.40;44.60;;;;;;4258406;27;20055;-74
2021/10/25 02:45:51;;;;;;;4.82;4.22;;;28.40;44.70;;;;;;4261741;27;20103;-74
2021/10/25 02:47:54;;;;;;;5.13;3.80;;;28.40;44.60;;;;;;4251482;27;20043;-75
2021/10/25 02:49:57;;;;;;;5.90;4.20;;;28.40;44.70;;;;;;4263302;27;20058;-74
2021/10/25 02:52:01;;;;;;;7.65;4.18;;;28.40;44.70;;;;;;4261529;27;20058;-74
2021/10/25 02:54:04;;;;;;;5.57;4.18;;;28.40;44.60;;;;;;4232607;27;20519;-75
2021/10/25 02:56:08;;;;;;;5.55;3.80;;;28.40;44.60;;;;;;4247415;27;20112;-74
2021/10/25 02:58:11;;;;;;;5.38;4.30;;;28.40;44.60;;;;;;4257450;27;20058;-73
2021/10/25 03:00:17;;;;;;;4.90;4.07;;;28.40;44.60;;;;;;4246124;27;20047;-73
2021/10/25 03:02:20;;;;;;;6.03;4.53;;;28.40;44.70;;;;;;4252873;27;20062;-72
2021/10/25 03:04:23;;;;;;;5.88;3.92;;;28.40;44.60;;;;;;4251038;27;20054;-72
2021/10/25 03:06:26;;;;;;;4.75;4.15;;;28.40;44.60;;;;;;4247264;27;20055;-74
2021/10/25 03:08:29;;;;;;;5.28;3.80;;;28.40;44.60;;;;;;4238867;27;20058;-71
2021/10/25 03:10:32;;;;;;;5.70;4.20;;;28.40;44.60;;;;;;4246094;27;20055;-73
2021/10/25 03:12:36;;;;;;;6.13;4.18;;;28.50;44.70;;;;;;4251887;27;20054;-74
2021/10/25 03:14:39;;;;;;;6.85;3.75;;;28.50;44.70;;;;;;4251456;27;20058;-74
2021/10/25 03:16:44;;;;;;;5.63;4.10;;;28.40;44.60;;;;;;4247130;27;20618;-76
2021/10/25 03:18:47;;;;;;;5.18;3.97;;;28.50;44.70;;;;;;4247966;27;20506;-75
2021/10/25 03:20:51;;;;;;;5.05;3.53;;;28.50;44.70;;;;;;4262672;27;20050;-74
2021/10/25 03:22:54;;;;;;;5.43;3.88;;;28.50;44.70;;;;;;4256053;27;20059;-74
2021/10/25 03:24:58;;;;;;;5.07;3.72;;;28.50;44.70;;;;;;4256517;27;20407;-71
2021/10/25 03:27:01;;;;;;;5.25;4.07;;;28.40;44.60;;;;;;4261210;27;20115;-67
2021/10/25 03:29:05;;;;;;;6.05;4.10;;;28.40;44.60;;;;;;4257003;27;20051;-73
2021/10/25 03:31:08;;;;;;;4.68;3.95;;;28.40;44.70;;;;;;4245572;28;20051;-67
2021/10/25 03:33:13;;;;;;;6.05;4.18;;;28.40;44.80;;;;;;4251236;27;20410;-72
2021/10/25 03:35:16;;;;;;;5.13;4.13;;;28.40;44.80;;;;;;4251911;27;20551;-74
2021/10/25 03:37:19;;;;;;;5.70;3.90;;;28.40;44.80;;;;;;4246266;27;20051;-74
2021/10/25 03:39:25;;;;;;;5.22;3.88;;;28.40;44.90;;;;;;4257359;27;20039;-76
2021/10/25 03:41:34;;;;;;;4.88;3.90;;;28.40;44.80;;;;;;4245358;28;20051;-74
2021/10/25 03:43:43;;;;;;;6.00;3.75;;;28.40;44.90;;;;;;4251938;27;20403;-70
2021/10/25 03:45:52;;;;;;;5.22;3.72;;;28.40;44.90;;;;;;4250502;27;20461;-74
2021/10/25 03:48:01;;;;;;;5.88;3.78;;;28.40;44.90;;;;;;4246662;27;20051;-74
2021/10/25 03:50:11;;;;;;;6.28;3.88;;;28.40;45.00;;;;;;4257019;27;20051;-73
2021/10/25 03:52:27;;;;;;;4.60;3.58;;;28.40;45.00;;;;;;4245164;28;20059;-75
2021/10/25 04:29:29;;;;;;;5.30;3.42;;;28.40;45.50;;;;;;4162405;28;20395;-76
2021/10/25 04:31:32;;;;;;;5.07;3.20;;;28.40;45.50;;;;;;4249227;27;20406;-76
2021/10/25 04:33:36;;;;;;;3.70;2.75;;;28.40;45.50;;;;;;4263786;27;20054;-74
2021/10/25 04:35:39;;;;;;;5.90;3.15;;;28.40;45.50;;;;;;4255899;27;20464;-67
2021/10/25 04:37:43;;;;;;;4.20;3.00;;;28.40;45.50;;;;;;4261957;27;20391;-75
2021/10/25 04:39:46;;;;;;;4.95;3.13;;;28.40;45.60;;;;;;4263636;27;20111;-68
2021/10/25 04:41:50;;;;;;;5.35;2.90;;;28.50;45.60;;;;;;4253856;27;20555;-70
2021/10/25 04:43:53;;;;;;;4.97;2.85;;;28.50;45.60;;;;;;4265022;27;20099;-69
2021/10/25 04:45:56;;;;;;;3.70;2.80;;;28.40;45.60;;;;;;4256498;27;20043;-68
2021/10/25 04:47:59;;;;;;;5.97;3.33;;;28.50;45.70;;;;;;4261337;27;20123;-74
2021/10/25 04:50:03;;;;;;;3.85;2.67;;;28.40;45.70;;;;;;4263796;27;20376;-73
2021/10/25 04:52:07;;;;;;;3.63;3.05;;;28.40;45.70;;;;;;4253425;27;20054;-71
2021/10/25 04:54:13;;;;;;;5.20;2.92;;;28.40;45.70;;;;;;4265134;27;20380;-74
2021/10/25 04:56:16;;;;;;;3.97;3.10;;;28.50;45.80;;;;;;4255854;27;20135;-75
2021/10/25 04:58:19;;;;;;;4.25;2.75;;;28.40;45.80;;;;;;4242799;27;20055;-71
2021/10/25 05:00:22;;;;;;;4.40;3.03;;;28.40;45.80;;;;;;4263137;27;20047;-74
2021/10/25 05:02:25;;;;;;;3.20;2.33;;;28.50;45.80;;;;;;4253122;27;20523;-75
2021/10/25 05:04:29;;;;;;;4.13;2.70;;;28.40;45.80;;;;;;4264771;27;20054;-67
2021/10/25 05:06:32;;;;;;;4.70;3.40;;;28.50;46.00;;;;;;4256514;27;20047;-68
2021/10/25 05:08:35;;;;;;;4.18;2.72;;;28.50;45.90;;;;;;4242056;27;20472;-74
2021/10/25 05:10:40;;;;;;;3.97;2.88;;;28.50;45.90;;;;;;4262965;27;20054;-67
2021/10/25 05:12:43;;;;;;;3.40;2.40;;;28.40;45.90;;;;;;4249337;27;20055;-72
2021/10/25 05:14:46;;;;;;;3.85;2.60;;;28.50;46.00;;;;;;4247731;27;20116;-74
2021/10/25 05:16:49;;;;;;;3.88;2.72;;;28.50;46.00;;;;;;4254949;27;20510;-73
2021/10/25 05:18:52;;;;;;;4.28;3.05;;;28.50;46.00;;;;;;4252872;27;20055;-75
2021/10/25 05:20:55;;;;;;;3.70;2.60;;;28.50;46.10;;;;;;4248905;27;20399;-70
2021/10/25 05:22:59;;;;;;;3.65;2.72;;;28.40;46.00;;;;;;4258075;27;20051;-73
2021/10/25 05:25:02;;;;;;;4.00;2.78;;;28.40;46.10;;;;;;4247016;27;20051;-74
2021/10/25 05:27:07;;;;;;;4.55;2.63;;;28.50;46.20;;;;;;4253529;27;20058;-74
2021/10/25 05:29:10;;;;;;;3.85;2.70;;;28.50;46.20;;;;;;4234871;27;20047;-68
2021/10/25 05:31:13;;;;;;;4.05;2.55;;;28.50;46.20;;;;;;4248158;27;20043;-72
2021/10/25 05:33:16;;;;;;;3.35;2.60;;;28.50;46.20;;;;;;4258965;27;20054;-74
2021/10/25 05:35:19;;;;;;;4.07;2.67;;;28.50;46.20;;;;;;4247260;27;20043;-74
2021/10/25 05:37:24;;;;;;;3.45;2.50;;;28.50;46.30;;;;;;4253407;27;20047;-75
2021/10/25 05:39:27;;;;;;;5.05;2.70;;;28.50;46.30;;;;;;4253166;27;20062;-69
2021/10/25 05:41:30;;;;;;;4.85;2.58;;;28.50;46.30;;;;;;4248173;27;20051;-72
2021/10/25 05:43:35;;;;;;;4.05;2.60;;;28.50;46.30;;;;;;4252360;27;20055;-71
2021/10/25 05:45:38;;;;;;;4.15;2.53;;;28.50;46.40;;;;;;4262943;27;20062;-76
2021/10/25 05:47:41;;;;;;;3.30;2.75;;;28.50;46.30;;;;;;4257924;27;20051;-70
2021/10/25 05:49:45;;;;;;;3.88;2.50;;;28.50;46.40;;;;;;4257409;27;20055;-74
2021/10/25 05:51:48;;;;;;;3.30;2.70;;;28.50;46.40;;;;;;4263423;27;20585;-75
2021/10/25 05:53:51;;;;;;;2.83;2.17;;;28.50;46.40;;;;;;4252045;27;20568;-72
2021/10/25 05:55:54;;;;;;;4.43;2.40;;;28.40;46.30;;;;;;4264142;27;20051;-75
2021/10/25 05:57:57;;;;;;;3.95;2.60;;;28.50;46.40;;;;;;4259492;27;20500;-75
2021/10/25 06:00:04;;;;;;;4.45;2.85;;;28.50;46.40;;;;;;4254064;27;20832;-73
2021/10/25 06:02:22;;;;;;;3.88;2.80;;;28.50;46.40;;;;;;4229398;27;20055;-68
2021/10/25 06:04:26;;;;;;;3.53;2.22;;;28.40;46.40;;;;;;4258335;27;20055;-68
2021/10/25 06:06:29;;;;;;;7.03;2.75;;;28.40;46.40;;;;;;4247188;27;20039;-67
2021/10/25 06:08:32;;;;;;;3.00;2.58;;;28.40;46.50;;;;;;4254150;27;20047;-66
2021/10/25 06:10:35;;;;;;;4.68;2.53;;;28.40;46.50;;;;;;4251976;27;20524;-67
2021/10/25 06:12:41;;;;;;;3.58;2.78;;;28.40;46.50;;;;;;4248014;27;20119;-70
2021/10/25 06:14:46;;;;;;;5.20;2.85;;;28.40;46.50;;;;;;4258001;27;20054;-72
2021/10/25 06:16:57;;;;;;;3.92;2.80;;;28.40;46.60;;;;;;4246466;27;20103;-67
2021/10/25 06:19:00;;;;;;;7.03;2.85;;;28.40;46.60;;;;;;4254461;27;20062;-74
2021/10/25 06:21:03;;;;;;;5.35;2.58;;;28.40;46.60;;;;;;4250439;27;20055;-70
2021/10/25 06:23:10;;;;;;;6.03;3.05;;;28.40;46.60;;;;;;4231161;27;20056;-74
2021/10/25 06:25:14;;;;;;;5.93;2.90;;;28.40;46.60;;;;;;4251573;27;20111;-74
2021/10/25 06:27:17;;;;;;;3.78;2.65;;;28.40;46.60;;;;;;4263663;27;20059;-69
2021/10/25 06:29:20;;;;;;;4.25;3.05;;;28.40;46.60;;;;;;4254996;27;20411;-72
2021/10/25 06:31:26;;;;;;;7.13;3.10;;;28.40;46.60;;;;;;4258961;27;20046;-67
2021/10/25 06:33:36;;;;;;;5.35;3.03;;;28.40;46.70;;;;;;4261643;27;20052;-67
2021/10/25 06:35:40;;;;;;;4.00;2.72;;;28.40;46.70;;;;;;4251510;27;20480;-71
2021/10/25 06:38:00;;;;;;;5.18;3.10;;;28.40;46.70;;;;;;4263578;27;20058;-69
2021/10/25 06:40:06;;;;;;;3.17;2.60;;;28.40;46.70;;;;;;4251635;27;20051;-74
2021/10/25 06:42:10;;;;;;;6.72;2.60;;;28.30;46.60;;;;;;4262420;27;20057;-67
2021/10/25 06:44:13;;;;;;;4.60;3.05;;;28.40;46.70;;;;;;4260121;27;20104;-71
2021/10/25 06:46:17;;;;;;;7.25;3.40;;;28.30;46.60;;;;;;4253275;27;20055;-74
2021/10/25 06:48:21;;;;;;;5.93;3.30;;;28.30;46.60;;;;;;4263332;27;20055;-70
2021/10/25 06:50:28;;;;;;;4.25;3.10;;;28.40;46.70;;;;;;4251518;27;20411;-73
2021/10/25 06:52:30;;;;;;;5.25;3.00;;;28.30;46.60;;;;;;4262476;27;20543;-70
2021/10/25 06:54:34;;;;;;;4.90;3.15;;;28.30;46.60;;;;;;4259841;27;20054;-71
2021/10/25 06:56:37;;;;;;;7.30;3.10;;;28.40;46.70;;;;;;4253011;27;20131;-70
2021/10/25 06:58:40;;;;;;;4.60;2.88;;;28.40;46.70;;;;;;4263371;27;20054;-69
2021/10/25 07:00:43;;;;;;;5.57;3.00;;;28.30;46.60;;;;;;4258545;27;20210;-70
2021/10/25 07:02:47;;;;;;;5.00;2.97;;;28.40;46.70;;;;;;4247041;27;20059;-71
2021/10/25 07:04:51;;;;;;;5.50;2.67;;;28.40;46.70;;;;;;4250873;27;20051;-72
2021/10/25 07:06:56;;;;;;;5.47;3.25;;;28.40;46.70;;;;;;4252684;27;20054;-73
2021/10/25 07:09:02;;;;;;;5.85;3.10;;;28.40;46.70;;;;;;4262931;27;20399;-75
2021/10/25 07:11:05;;;;;;;4.25;3.00;;;28.40;46.70;;;;;;4251145;27;20051;-74
2021/10/25 07:13:08;;;;;;;6.20;3.58;;;28.40;46.70;;;;;;4261710;27;20058;-72
2021/10/25 07:15:11;;;;;;;4.75;3.38;;;28.40;46.70;;;;;;4260552;27;20043;-69
2021/10/25 07:17:30;;;;;;;5.13;3.05;;;28.40;46.70;;;;;;4252279;27;20126;-69
2021/10/25 08:08:14;;;;;;;5.82;3.13;;;28.50;47.00;;;;;;4251993;27;20058;-66
2021/10/25 08:10:23;;;;;;;4.70;3.20;;;28.50;47.00;;;;;;4248612;27;20380;-72
2021/10/25 08:12:30;;;;;;;4.47;2.92;;;28.50;47.00;;;;;;4253883;27;20430;-74
2021/10/25 08:14:36;;;;;;;4.68;2.80;;;28.40;47.00;;;;;;4255196;27;20047;-74
2021/10/25 08:16:52;;;;;;;5.60;2.95;;;28.50;47.00;;;;;;4249401;27;20055;-73
2021/10/25 08:19:07;;;;;;;6.32;2.70;;;28.50;47.00;;;;;;4259854;27;20047;-75
2021/10/25 08:21:10;;;;;;;5.25;3.15;;;28.50;47.00;;;;;;4248241;27;20116;-73
2021/10/25 08:23:13;;;;;;;5.03;3.10;;;28.50;47.00;;;;;;4238623;27;20060;-72
2021/10/25 08:25:16;;;;;;;6.03;3.50;;;28.50;47.10;;;;;;4251767;27;20062;-74
2021/10/25 08:27:20;;;;;;;5.15;3.15;;;28.50;47.10;;;;;;4249673;27;20063;-72
2021/10/25 08:29:25;;;;;;;5.28;3.55;;;28.50;47.10;;;;;;4260028;27;20511;-72
2021/10/25 08:31:29;;;;;;;5.95;2.92;;;28.50;47.10;;;;;;4248096;27;20051;-72
2021/10/25 08:40:25;;;;;;;4.70;2.90;;;28.50;47.10;;;;;;4254797;27;20051;-74
2021/10/25 08:42:32;;;;;;;7.05;3.35;;;28.50;47.10;;;;;;4248656;27;20059;-70
2021/10/25 08:44:37;;;;;;;4.30;2.83;;;28.50;47.20;;;;;;4259508;27;20058;-69
2021/10/25 08:46:44;;;;;;;4.10;3.20;;;28.50;47.10;;;;;;4248024;27;20104;-73
2021/10/25 08:48:48;;;;;;;3.80;2.47;;;28.50;47.10;;;;;;4254196;27;20054;-73
2021/10/25 08:50:51;;;;;;;5.57;2.75;;;28.60;47.20;;;;;;4254024;27;20403;-69
2021/10/25 08:52:55;;;;;;;4.38;2.92;;;28.60;47.30;;;;;;4248860;27;20051;-74
2021/10/25 08:55:01;;;;;;;6.10;3.03;;;28.50;47.20;;;;;;4259487;27;20061;-68
2021/10/25 08:57:04;;;;;;;6.20;3.10;;;28.60;47.30;;;;;;4247825;27;20055;-72
2021/10/25 08:59:07;;;;;;;4.53;2.88;;;28.60;47.20;;;;;;4254134;27;20055;-68
2021/10/25 09:01:23;;;;;;;5.00;3.03;;;28.60;47.20;;;;;;4253818;27;20055;-72
2021/10/25 09:03:26;;;;;;;5.10;2.90;;;28.60;47.80;;;;;;4249065;27;20063;-71
2021/10/25 09:05:31;;;;;;;4.47;2.85;;;28.60;47.30;;;;;;4259101;27;20050;-71
2021/10/25 09:07:47;;;;;;;7.88;3.22;;;28.60;47.30;;;;;;4247599;27;20055;-70
2021/10/25 09:09:50;;;;;;;8.82;3.22;;;28.60;47.30;;;;;;4257006;27;20541;-66
2021/10/25 09:11:57;;;;;;;3.72;3.00;;;28.60;47.30;;;;;;4250426;27;20047;-73
2021/10/25 09:14:00;;;;;;;6.28;3.10;;;28.60;47.30;;;;;;4248891;27;20487;-74
2021/10/25 09:16:06;;;;;;;6.25;3.00;;;28.60;47.30;;;;;;4234875;27;20567;-73
2021/10/25 09:18:13;;;;;;;5.40;2.83;;;28.60;47.30;;;;;;4264788;27;20063;-71
2021/10/25 09:20:17;;;;;;;4.80;3.17;;;28.60;47.40;;;;;;4253762;27;20496;-67
2021/10/25 09:22:21;;;;;;;7.60;3.40;;;28.60;47.40;;;;;;4262254;27;20047;-70
2021/10/25 09:24:25;;;;;;;4.97;3.40;;;28.70;47.40;;;;;;4262757;27;20055;-67
2021/10/25 09:26:31;;;;;;;8.73;3.10;;;28.70;47.40;;;;;;4253606;27;20046;-66
2021/10/25 09:28:36;;;;;;;5.00;2.83;;;28.70;47.40;;;;;;4264696;27;20103;-67
2021/10/25 09:30:52;;;;;;;5.68;3.10;;;28.70;47.40;;;;;;4252818;27;20127;-72
2021/10/25 09:33:05;;;;;;;5.63;3.08;;;28.70;47.40;;;;;;4264309;27;20626;-73
2021/10/25 09:35:21;;;;;;;4.30;2.97;;;28.60;47.40;;;;;;4259194;27;20055;-75
2021/10/25 09:37:29;;;;;;;5.75;2.97;;;28.70;47.40;;;;;;4258447;27;20051;-73
2021/10/25 09:39:44;;;;;;;6.60;2.90;;;28.70;47.50;;;;;;4262342;27;20054;-72
2021/10/25 09:49:04;;;;;;;5.53;2.95;;;28.70;47.50;;;;;;4264316;27;20042;-74
2021/10/25 09:51:09;;;;;;;6.32;3.25;;;28.70;47.60;;;;;;4259860;27;20597;-71
2021/10/25 09:53:28;;;;;;;4.57;2.95;;;28.70;47.60;;;;;;4249194;27;20051;-68
2021/10/25 09:55:39;;;;;;;5.10;3.10;;;28.80;47.70;;;;;;4248836;27;20047;-69
2021/10/25 09:57:52;;;;;;;6.53;3.58;;;28.80;47.70;;;;;;4256227;27;20047;-69
2021/10/25 09:59:58;;;;;;;4.63;2.50;;;28.80;47.70;;;;;;4246679;27;20108;-73
2021/10/25 10:02:03;;;;;;;7.45;3.60;;;28.70;47.60;;;;;;4251155;27;20055;-72
2021/10/25 10:04:07;;;;;;;4.43;2.92;;;28.80;47.70;;;;;;4263924;27;20123;-67
2021/10/25 10:06:11;;;;;;;5.00;3.30;;;28.80;47.70;;;;;;4258675;27;20407;-67
2021/10/25 10:08:14;;;;;;;4.38;2.85;;;28.80;47.80;;;;;;4256098;27;20088;-68
2021/10/25 10:10:21;;;;;;;6.63;2.83;;;28.80;47.70;;;;;;4263730;27;20042;-70
2021/10/25 10:12:26;;;;;;;5.18;2.85;;;28.80;47.80;;;;;;4251232;27;20490;-71
2021/10/25 10:14:29;;;;;;;;;;;28.80;47.80;;;;;;4264000;27;20054;-76
2021/10/25 10:16:34;;;;;;;4.55;3.10;;;28.80;47.80;;;;;;4258363;27;20294;-74
2021/10/25 10:18:42;;;;;;;5.63;3.42;;;28.80;47.80;;;;;;4256479;27;20058;-69
2021/10/25 10:20:51;;;;;;;5.78;3.25;;;28.80;48.10;;;;;;4262652;27;20047;-69
2021/10/25 10:22:59;;;;;;;4.15;2.67;;;28.80;47.80;;;;;;4256910;27;20491;-71
2021/10/25 10:25:03;;;;;;;5.95;3.00;;;28.80;47.80;;;;;;4246250;27;20050;-74
2021/10/25 10:27:07;;;;;;;4.65;2.95;;;28.80;47.80;;;;;;4252476;27;20510;-73
2021/10/25 10:29:15;;;;;;;6.90;3.60;;;28.80;47.80;;;;;;4251187;27;20055;-68
2021/10/25 10:31:23;;;;;;;7.38;3.28;;;28.80;47.90;;;;;;4246316;27;20498;-68
2021/10/25 10:33:35;;;;;;;4.65;2.70;;;28.90;48.00;;;;;;4257534;27;20045;-72
2021/10/25 10:35:39;;;;;;;5.75;3.45;;;28.80;47.90;;;;;;4245897;27;20058;-68
2021/10/25 10:37:44;;;;;;;5.43;3.30;;;28.90;48.00;;;;;;4254924;27;20096;-70
2021/10/25 10:40:05;;;;;;;5.80;3.58;;;28.90;48.00;;;;;;4249506;27;20063;-68
2021/10/25 10:42:09;;;;;;;6.15;3.60;;;28.90;48.00;;;;;;4230298;27;20059;-68
2021/10/25 10:44:14;;;;;;;6.32;3.10;;;28.90;48.00;;;;;;4255853;27;20482;-73
2021/10/25 10:46:18;;;;;;;5.40;3.15;;;28.90;48.10;;;;;;4246281;27;20195;-71
2021/10/25 10:48:24;;;;;;;8.00;3.53;;;28.90;48.00;;;;;;4257280;27;20107;-74
2021/10/25 10:50:39;;;;;;;6.13;3.15;;;28.90;48.00;;;;;;4246133;27;20066;-73
2021/10/25 10:52:47;;;;;;;8.38;3.67;;;28.90;48.10;;;;;;4250250;27;20121;-75
2021/10/25 10:55:00;;;;;;;5.43;3.45;;;28.90;48.10;;;;;;4253068;27;20602;-75
2021/10/25 10:57:20;;;;;;;6.13;3.55;;;28.90;48.10;;;;;;4247228;27;20120;-71
2021/10/25 10:59:33;;;;;;;4.50;3.33;;;28.90;48.10;;;;;;4257490;27;20488;-72
2021/10/25 11:01:37;;;;;;;6.05;3.42;;;28.90;48.10;;;;;;4246198;27;20572;-68
2021/10/25 11:03:40;;;;;;;;;;;28.90;48.10;;;;;;4255942;27;20111;-74
2021/10/25 11:05:46;;;;;;;4.32;3.30;;;28.90;48.20;;;;;;4248399;27;19923;-68
2021/10/25 11:07:49;;;;;;;4.18;3.05;;;28.90;48.20;;;;;;4228545;27;20120;-75
2021/10/25 11:09:59;;;;;;;5.57;3.15;;;28.90;48.20;;;;;;4251328;27;20043;-67
2021/10/25 11:12:12;;;;;;;6.72;3.30;;;28.90;48.30;;;;;;4262610;27;20053;-72
2021/10/25 11:14:17;;;;;;;4.20;3.17;;;28.90;48.30;;;;;;4250482;27;20408;-71
2021/10/25 11:16:28;;;;;;;3.95;2.70;;;28.90;48.30;;;;;;4262513;27;20107;-73
2021/10/25 11:18:33;;;;;;;5.70;3.28;;;28.90;48.30;;;;;;4258379;27;20070;-73
2021/10/25 11:20:37;;;;;;;3.85;2.80;;;28.90;48.30;;;;;;4254399;27;20431;-75
2021/10/25 11:22:40;;;;;;;4.15;2.67;;;28.90;48.30;;;;;;4261619;27;20430;-71
2021/10/25 11:24:44;;;;;;;4.90;3.00;;;28.90;48.40;;;;;;4257922;27;20318;-73
2021/10/25 11:26:49;;;;;;;4.72;2.83;;;28.90;48.30;;;;;;4245527;27;20127;-71
2021/10/25 11:29:04;;;;;;;5.13;2.58;;;28.90;48.40;;;;;;4249532;27;20055;-71
2021/10/25 11:31:07;;;;;;;4.80;3.00;;;28.90;48.40;;;;;;4251938;27;20088;-71
2021/10/25 11:33:10;;;;;;;4.25;2.88;;;28.90;48.40;;;;;;4245708;27;20047;-75
2021/10/25 11:35:14;;;;;;;3.65;2.47;;;28.90;48.40;;;;;;4257133;27;20447;-73
2021/10/25 11:37:20;;;;;;;3.88;2.67;;;28.90;48.50;;;;;;4245572;28;20148;-69
2021/10/25 11:39:27;;;;;;;4.38;2.38;;;28.90;48.50;;;;;;4250953;27;20054;-74
2021/10/25 11:41:33;;;;;;;5.63;2.88;;;28.90;48.50;;;;;;4233221;28;20055;-69
2021/10/25 11:43:37;;;;;;;4.20;2.80;;;28.90;48.50;;;;;;4248510;27;20388;-72
2021/10/25 11:45:42;;;;;;;7.15;2.78;;;28.90;48.50;;;;;;4260634;27;20054;-76
2021/10/25 11:47:47;;;;;;;3.25;2.35;;;28.90;48.60;;;;;;4249116;27;20048;-74
2021/10/25 11:49:51;;;;;;;3.63;2.60;;;28.90;48.60;;;;;;4255427;27;20051;-75
2021/10/25 11:51:55;;;;;;;5.50;2.58;;;28.90;48.60;;;;;;4254802;27;20055;-69
2021/10/25 11:53:59;;;;;;;4.25;2.60;;;28.90;48.60;;;;;;4250265;27;20457;-73
2021/10/25 11:56:11;;;;;;;2.70;2.28;;;28.90;48.60;;;;;;4260612;27;20055;-75
2021/10/25 11:58:15;;;;;;;5.63;2.53;;;28.90;48.60;;;;;;4249119;27;20047;-71
2021/10/25 12:00:19;;;;;;;5.53;2.63;;;28.90;48.60;;;;;;4255941;27;20059;-75
2021/10/25 12:02:24;;;;;;;4.20;2.50;;;28.90;48.60;;;;;;4253502;27;20995;-73
2021/10/25 12:04:28;;;;;;;3.38;2.33;;;28.90;48.60;;;;;;4250175;27;20051;-71
2021/10/25 12:06:31;;;;;;;3.30;2.30;;;28.90;48.60;;;;;;4259961;27;20400;-70
2021/10/25 12:08:34;;;;;;;5.28;2.80;;;28.90;48.60;;;;;;4248568;27;20055;-73
2021/10/25 12:10:38;;;;;;;5.28;2.72;;;28.90;48.60;;;;;;4255671;27;20050;-74
2021/10/25 12:12:43;;;;;;;4.20;2.70;;;28.90;48.70;;;;;;4235137;27;20056;-73
2021/10/25 12:14:47;;;;;;;3.92;2.40;;;28.90;48.70;;;;;;4249845;27;20055;-70
2021/10/25 12:16:51;;;;;;;5.15;2.97;;;28.90;48.70;;;;;;4262177;27;20043;-70
2021/10/25 12:18:55;;;;;;;4.38;2.97;;;28.90;48.70;;;;;;4248258;27;20108;-71
2021/10/25 12:21:07;;;;;;;4.75;2.97;;;28.90;48.70;;;;;;4255435;27;20055;-67
2021/10/25 12:23:12;;;;;;;5.60;2.80;;;28.90;48.80;;;;;;4247156;27;20055;-69
2021/10/25 12:25:20;;;;;;;5.85;2.70;;;28.90;48.80;;;;;;4263923;27;20047;-68
2021/10/25 12:27:32;;;;;;;4.22;2.50;;;29.00;48.90;;;;;;4253781;27;20062;-66
2021/10/25 12:29:35;;;;;;;4.22;2.60;;;28.90;48.80;;;;;;4265384;27;20051;-70